Time;durP1;ratioP1;P1;durP2;ratioP2;P2;SDS_P1;SDS_P2;PMS_P1;PMS_P2;Temp;Humidity;BMP_temperature;BMP_pressure;BME280_temperature;BME280_humidity;BME280_pressure;Samples;Min_cycle;Max_cycle;Signal;HPM_P1;HPM_P2
2022/06/08 00:00:23;;;;;;;3.70;1.52;;;17.20;79.50;;;;;;5084978;28;20078;-67
2022/06/08 00:03:01;;;;;;;4.72;1.88;;;17.20;79.60;;;;;;5095944;28;20058;-68
2022/06/08 00:05:35;;;;;;;1.90;1.10;;;17.20;79.60;;;;;;5094057;28;20057;-65
2022/06/08 00:08:02;;;;;;;2.47;1.30;;;17.20;79.30;;;;;;5095685;28;20128;-69
2022/06/08 00:10:30;;;;;;;2.50;1.00;;;17.20;79.10;;;;;;5095823;28;20441;-68
2022/06/08 00:12:57;;;;;;;1.90;0.95;;;17.20;79.20;;;;;;5095419;28;20051;-68
2022/06/08 00:15:24;;;;;;;4.35;1.65;;;17.20;79.30;;;;;;5094560;28;20067;-68
2022/06/08 00:17:51;;;;;;;2.72;1.38;;;17.10;79.50;;;;;;5095158;28;20101;-68
2022/06/08 00:20:19;;;;;;;2.75;1.20;;;17.10;79.90;;;;;;5094884;28;20525;-67
2022/06/08 00:22:47;;;;;;;2.20;0.98;;;17.10;79.90;;;;;;5093071;28;20146;-68
2022/06/08 00:25:14;;;;;;;1.58;1.10;;;17.10;80.10;;;;;;5091483;28;20036;-67
2022/06/08 00:27:42;;;;;;;2.30;1.40;;;17.00;80.10;;;;;;5091872;28;20039;-69
2022/06/08 00:30:12;;;;;;;3.47;1.43;;;16.90;80.30;;;;;;5077085;28;20080;-68
2022/06/08 00:32:41;;;;;;;2.47;1.17;;;16.90;80.30;;;;;;5075831;28;20482;-68
2022/06/08 00:35:09;;;;;;;3.40;1.08;;;16.80;80.30;;;;;;5094648;28;20542;-67
2022/06/08 00:37:36;;;;;;;2.33;1.13;;;16.80;80.30;;;;;;5076597;28;20062;-67
2022/06/08 00:40:07;;;;;;;4.60;1.35;;;16.70;80.20;;;;;;5098549;28;20097;-68
2022/06/08 00:42:35;;;;;;;3.38;1.25;;;16.70;80.30;;;;;;5090801;28;20048;-67
2022/06/08 00:45:06;;;;;;;3.47;1.10;;;16.70;80.20;;;;;;5092442;28;20047;-67
2022/06/08 00:47:39;;;;;;;2.72;1.27;;;16.70;80.20;;;;;;5098165;28;20142;-68
2022/06/08 00:50:12;;;;;;;2.78;1.15;;;16.70;80.30;;;;;;5100549;28;20048;-67
2022/06/08 00:52:40;;;;;;;3.40;1.55;;;16.70;80.40;;;;;;5094477;28;20043;-67
2022/06/08 00:55:14;;;;;;;1.63;0.93;;;16.70;80.70;;;;;;5078644;28;20052;-68
2022/06/08 00:57:44;;;;;;;2.05;1.10;;;16.70;80.90;;;;;;5076755;28;20054;-68
2022/06/08 01:00:14;;;;;;;2.85;1.70;;;16.70;81.00;;;;;;5096068;28;20354;-66
2022/06/08 01:02:42;;;;;;;2.85;1.52;;;16.70;81.10;;;;;;5098096;28;20064;-69
2022/06/08 01:05:21;;;;;;;3.45;1.52;;;16.80;81.00;;;;;;5078296;28;20419;-68
2022/06/08 01:07:52;;;;;;;2.03;1.20;;;16.80;80.90;;;;;;5085298;28;20513;-68
2022/06/08 01:10:23;;;;;;;4.45;1.30;;;16.70;81.00;;;;;;5077284;28;20044;-67
2022/06/08 01:12:52;;;;;;;2.60;1.27;;;16.70;81.00;;;;;;5099977;28;20044;-68
2022/06/08 01:15:23;;;;;;;1.98;1.00;;;16.80;80.80;;;;;;5103086;28;20078;-67
2022/06/08 01:17:51;;;;;;;2.15;1.23;;;16.80;80.60;;;;;;5083858;28;20043;-68
2022/06/08 01:20:21;;;;;;;2.08;1.17;;;16.80;80.60;;;;;;5082579;28;20134;-67
2022/06/08 01:22:50;;;;;;;2.17;1.15;;;16.80;80.50;;;;;;5079203;28;20429;-68
2022/06/08 01:25:17;;;;;;;3.10;1.08;;;16.80;80.50;;;;;;5095497;28;20651;-68
2022/06/08 01:28:10;;;;;;;3.20;1.13;;;16.90;80.50;;;;;;5079992;28;20425;-69
2022/06/08 01:30:51;;;;;;;1.70;0.98;;;16.90;80.40;;;;;;5074649;28;21309;-67
2022/06/08 01:33:46;;;;;;;2.42;1.30;;;16.90;80.30;;;;;;5100321;28;20055;-68
2022/06/08 01:36:34;;;;;;;1.70;1.00;;;16.80;80.50;;;;;;5074635;28;20130;-68
2022/06/08 01:39:06;;;;;;;2.78;1.30;;;16.70;80.70;;;;;;5093266;28;20435;-67
2022/06/08 01:42:13;;;;;;;2.15;1.23;;;16.70;80.70;;;;;;5079283;28;20061;-67
2022/06/08 01:48:17;;;;;;;1.90;1.02;;;16.70;80.70;;;;;;5078112;28;20048;-69
2022/06/08 01:50:57;;;;;;;2.53;1.00;;;16.80;80.40;;;;;;5078893;28;20072;-68
2022/06/08 01:53:39;;;;;;;3.40;1.20;;;16.80;80.20;;;;;;5074358;28;20127;-68
2022/06/08 01:56:18;;;;;;;2.28;1.00;;;16.90;80.20;;;;;;5070785;28;20044;-67
2022/06/08 01:58:52;;;;;;;4.38;1.60;;;16.80;80.20;;;;;;5067769;28;20072;-68
2022/06/08 02:01:27;;;;;;;1.98;1.02;;;16.90;80.10;;;;;;5064982;28;20496;-68
2022/06/08 02:04:06;;;;;;;2.08;1.25;;;16.80;80.20;;;;;;5077483;28;20078;-66
2022/06/08 02:06:42;;;;;;;2.22;1.30;;;16.80;80.30;;;;;;5079909;28;20063;-67
2022/06/08 02:09:17;;;;;;;2.42;0.98;;;16.70;80.60;;;;;;5062767;28;20077;-68
2022/06/08 02:11:51;;;;;;;2.80;1.52;;;16.60;81.00;;;;;;5078417;28;20045;-65
2022/06/08 02:14:23;;;;;;;2.63;1.30;;;16.50;81.20;;;;;;5078559;28;20039;-67
2022/06/08 02:16:53;;;;;;;1.98;1.10;;;16.50;81.30;;;;;;5079710;28;20059;-68
2022/06/08 02:19:27;;;;;;;3.25;1.20;;;16.60;81.20;;;;;;5073705;28;20052;-68
2022/06/08 02:21:59;;;;;;;6.53;1.23;;;16.60;81.10;;;;;;5062904;28;20416;-67
2022/06/08 02:24:33;;;;;;;1.67;0.82;;;16.60;81.00;;;;;;5077755;28;20101;-68
2022/06/08 02:27:09;;;;;;;2.60;1.33;;;16.60;80.90;;;;;;5062504;28;20048;-68
2022/06/08 02:29:41;;;;;;;2.83;1.15;;;16.60;80.80;;;;;;5074016;28;20063;-66
2022/06/08 02:34:58;;;;;;;1.88;1.00;;;16.60;80.70;;;;;;5076753;28;20048;-68
2022/06/08 02:37:29;;;;;;;1.80;1.13;;;16.60;80.80;;;;;;5069149;28;20047;-67
2022/06/08 02:40:03;;;;;;;2.90;1.23;;;16.60;81.00;;;;;;5069146;28;20048;-68
2022/06/08 02:42:41;;;;;;;2.25;1.27;;;16.60;81.20;;;;;;5062111;28;20051;-68
2022/06/08 02:45:14;;;;;;;2.67;1.52;;;16.50;81.40;;;;;;5077175;28;20044;-67
2022/06/08 02:47:46;;;;;;;2.35;1.27;;;16.50;81.40;;;;;;5078222;28;20080;-68
2022/06/08 02:50:17;;;;;;;2.65;1.13;;;16.50;81.50;;;;;;5080625;28;20042;-68
2022/06/08 02:52:46;;;;;;;5.10;1.15;;;16.40;81.40;;;;;;5075072;28;20098;-68
2022/06/08 02:55:20;;;;;;;1.92;1.20;;;16.40;81.40;;;;;;5077584;28;20068;-68
2022/06/08 02:57:54;;;;;;;2.80;1.17;;;16.40;81.40;;;;;;5078490;28;20052;-68
2022/06/08 03:00:30;;;;;;;1.52;0.95;;;16.40;81.30;;;;;;5073416;28;20479;-69
2022/06/08 03:03:05;;;;;;;2.03;0.98;;;16.40;81.30;;;;;;5062801;28;20086;-67
2022/06/08 03:05:38;;;;;;;2.28;1.15;;;16.30;81.20;;;;;;5076710;28;20105;-66
2022/06/08 03:08:11;;;;;;;1.48;0.95;;;16.30;81.10;;;;;;5076391;28;20059;-68
2022/06/08 03:10:42;;;;;;;1.20;0.68;;;16.30;81.10;;;;;;5077210;28;20052;-68
2022/06/08 03:13:17;;;;;;;2.03;1.23;;;16.30;81.00;;;;;;5071996;28;20040;-67
2022/06/08 03:15:51;;;;;;;1.42;0.88;;;16.30;80.80;;;;;;5073186;28;20415;-68
2022/06/08 03:18:18;;;;;;;1.00;0.60;;;16.20;80.60;;;;;;5070696;28;20128;-68
2022/06/08 03:20:45;;;;;;;1.55;1.00;;;16.20;80.40;;;;;;5073145;28;20078;-66
2022/06/08 03:23:12;;;;;;;2.65;0.90;;;16.10;80.50;;;;;;5077196;28;20055;-67
2022/06/08 03:25:40;;;;;;;2.58;0.70;;;16.10;80.60;;;;;;5070165;28;20048;-68
2022/06/08 03:28:08;;;;;;;1.70;0.80;;;16.00;80.70;;;;;;5074033;28;20080;-66
2022/06/08 03:30:37;;;;;;;1.73;0.90;;;16.00;80.70;;;;;;5077253;28;20056;-67
2022/06/08 03:33:05;;;;;;;1.33;0.93;;;15.90;80.80;;;;;;5075200;28;20673;-69
2022/06/08 03:35:32;;;;;;;2.05;1.08;;;16.00;81.00;;;;;;5054343;28;20125;-68
2022/06/08 03:37:59;;;;;;;1.98;0.95;;;15.90;81.10;;;;;;5061994;28;20129;-69
2022/06/08 03:40:28;;;;;;;1.90;1.10;;;15.90;81.20;;;;;;5065242;28;20056;-67
2022/06/08 03:42:55;;;;;;;3.53;1.00;;;15.90;81.40;;;;;;5065252;28;20403;-69
2022/06/08 03:45:23;;;;;;;3.42;1.48;;;15.90;81.40;;;;;;5069530;28;20099;-68
2022/06/08 03:47:53;;;;;;;1.80;1.00;;;16.00;81.50;;;;;;5062485;28;20045;-68
2022/06/08 03:50:24;;;;;;;1.35;0.90;;;16.00;81.40;;;;;;5067885;28;20044;-67
2022/06/08 03:52:56;;;;;;;1.85;0.90;;;16.00;81.40;;;;;;5078831;28;20056;-66
2022/06/08 03:55:26;;;;;;;1.75;0.85;;;16.00;81.50;;;;;;5057882;28;20048;-68
2022/06/08 03:57:55;;;;;;;2.70;1.08;;;16.00;81.50;;;;;;5067674;28;20121;-69
2022/06/08 04:00:25;;;;;;;2.10;1.10;;;16.00;81.50;;;;;;5063297;28;20052;-68
2022/06/08 04:03:06;;;;;;;0.80;0.55;;;16.00;81.50;;;;;;5066438;28;20431;-67
2022/06/08 04:05:34;;;;;;;1.90;1.00;;;16.00;81.10;;;;;;5050510;28;20044;-68
2022/06/08 04:08:05;;;;;;;2.42;0.80;;;16.00;81.20;;;;;;5062340;28;20044;-68
2022/06/08 04:10:34;;;;;;;;;;;16.00;81.30;;;;;;5082748;28;20053;-68
2022/06/08 04:13:02;;;;;;;1.38;0.93;;;16.00;81.30;;;;;;5068231;28;19929;-68
2022/06/08 04:15:44;;;;;;;1.40;0.80;;;16.00;81.20;;;;;;5066804;28;20140;-69
2022/06/08 04:18:22;;;;;;;3.25;0.82;;;16.00;81.30;;;;;;5066627;28;20052;-66
2022/06/08 04:20:56;;;;;;;1.52;0.70;;;16.00;81.10;;;;;;5062647;28;20981;-68
2022/06/08 04:23:28;;;;;;;1.92;0.95;;;16.00;81.10;;;;;;5064937;28;20041;-67
2022/06/08 04:25:58;;;;;;;1.67;0.80;;;16.00;81.30;;;;;;5067107;28;20044;-68
2022/06/08 04:28:27;;;;;;;1.23;0.68;;;16.10;81.40;;;;;;5069277;28;20048;-68
2022/06/08 04:31:00;;;;;;;1.75;0.90;;;16.10;81.50;;;;;;5064442;28;20619;-68
2022/06/08 04:33:32;;;;;;;2.53;1.17;;;16.10;81.40;;;;;;5066750;28;20040;-67
2022/06/08 04:35:59;;;;;;;1.80;1.10;;;16.10;81.60;;;;;;5067531;28;20043;-66
2022/06/08 04:38:28;;;;;;;2.08;0.90;;;16.20;81.50;;;;;;5052957;28;20053;-69
2022/06/08 04:40:55;;;;;;;2.90;1.15;;;16.20;81.40;;;;;;5066968;28;20144;-68
2022/06/08 04:43:23;;;;;;;2.28;1.10;;;16.30;81.20;;;;;;5066115;28;20135;-68
2022/06/08 04:45:50;;;;;;;2.25;1.00;;;16.40;81.10;;;;;;5079562;28;20130;-68
2022/06/08 04:48:19;;;;;;;2.25;1.02;;;16.40;81.10;;;;;;5067740;28;20036;-67
2022/06/08 04:50:48;;;;;;;2.05;1.00;;;16.40;81.20;;;;;;5067484;28;20557;-67
2022/06/08 04:53:16;;;;;;;5.22;1.52;;;16.50;80.90;;;;;;5068230;28;20080;-68
2022/06/08 04:55:44;;;;;;;2.70;1.10;;;16.60;80.70;;;;;;5086054;28;20032;-68
2022/06/08 04:58:12;;;;;;;2.20;1.10;;;16.60;80.80;;;;;;5069613;28;20060;-67
2022/06/08 05:00:40;;;;;;;2.10;1.00;;;16.60;80.70;;;;;;5064950;28;20058;-65
2022/06/08 05:03:09;;;;;;;2.38;1.23;;;16.60;80.90;;;;;;5063678;28;20165;-67
2022/06/08 05:05:40;;;;;;;2.55;1.25;;;16.60;80.80;;;;;;5066721;28;20047;-66
2022/06/08 05:08:17;;;;;;;4.40;1.75;;;16.60;80.70;;;;;;5081570;28;20063;-68
2022/06/08 05:10:49;;;;;;;3.80;1.35;;;16.60;80.80;;;;;;5067981;28;20036;-66
2022/06/08 05:13:20;;;;;;;1.83;1.00;;;16.60;80.90;;;;;;5085341;28;20572;-67
2022/06/08 05:15:52;;;;;;;3.78;1.60;;;16.60;81.00;;;;;;5066289;28;20105;-68
2022/06/08 05:18:20;;;;;;;2.22;1.27;;;16.70;80.70;;;;;;5086003;28;20040;-69
2022/06/08 05:20:49;;;;;;;3.67;1.40;;;16.70;80.70;;;;;;5066534;28;20048;-69
2022/06/08 05:23:24;;;;;;;2.47;1.23;;;16.80;80.60;;;;;;5069565;28;20130;-69
2022/06/08 05:25:53;;;;;;;3.05;1.33;;;16.70;80.60;;;;;;5068539;28;20044;-67
2022/06/08 05:28:21;;;;;;;2.38;1.25;;;16.70;80.70;;;;;;5069423;28;20043;-67
2022/06/08 05:30:56;;;;;;;2.75;1.17;;;16.70;80.70;;;;;;5067870;28;20048;-67
2022/06/08 05:33:24;;;;;;;1.80;1.00;;;16.70;80.80;;;;;;5055235;28;20505;-68
2022/06/08 05:35:51;;;;;;;3.65;1.25;;;16.80;80.80;;;;;;5071132;28;20051;-68
2022/06/08 05:38:21;;;;;;;3.03;1.45;;;16.90;80.70;;;;;;5073709;28;20040;-67
2022/06/08 05:40:48;;;;;;;2.08;1.17;;;16.90;80.60;;;;;;5070644;28;20101;-69
2022/06/08 05:43:17;;;;;;;2.78;1.38;;;16.90;80.40;;;;;;5069740;28;20500;-68
2022/06/08 05:45:51;;;;;;;2.53;1.25;;;17.00;80.40;;;;;;5068971;28;20061;-68
2022/06/08 05:48:19;;;;;;;3.15;1.55;;;17.00;80.50;;;;;;5067677;28;20052;-69
2022/06/08 05:50:49;;;;;;;3.47;1.70;;;17.00;80.60;;;;;;5071117;28;20071;-68
2022/06/08 05:53:21;;;;;;;2.22;1.33;;;17.00;80.60;;;;;;5068291;28;20053;-68
2022/06/08 05:55:48;;;;;;;3.20;1.35;;;17.00;80.60;;;;;;5055751;28;20136;-67
2022/06/08 05:58:15;;;;;;;2.50;1.30;;;17.10;80.50;;;;;;5069380;28;20403;-68
2022/06/08 06:00:45;;;;;;;3.20;1.75;;;17.10;80.50;;;;;;5067022;28;20085;-67
2022/06/08 06:03:16;;;;;;;3.60;1.45;;;17.10;80.70;;;;;;5069619;28;20070;-68
2022/06/08 06:05:44;;;;;;;3.30;1.60;;;17.10;80.80;;;;;;5067528;28;20041;-69
2022/06/08 06:08:13;;;;;;;3.50;1.50;;;17.00;81.00;;;;;;5070557;28;20047;-68
2022/06/08 06:11:04;;;;;;;2.88;1.55;;;17.00;81.30;;;;;;5069628;28;20070;-67
2022/06/08 06:13:41;;;;;;;3.80;1.75;;;16.90;81.50;;;;;;5063996;28;20060;-68
2022/06/08 06:16:14;;;;;;;3.15;1.73;;;17.00;81.60;;;;;;5068620;28;20044;-67
2022/06/08 06:18:41;;;;;;;3.92;1.70;;;17.00;81.70;;;;;;5073740;28;20045;-68
2022/06/08 06:21:32;;;;;;;3.33;1.75;;;17.00;81.70;;;;;;5060563;28;20057;-69
2022/06/08 06:24:14;;;;;;;3.35;1.48;;;17.10;81.60;;;;;;5063725;28;20526;-68
2022/06/08 06:27:11;;;;;;;3.88;1.75;;;17.20;81.40;;;;;;5051959;28;20053;-67
2022/06/08 06:29:59;;;;;;;3.08;1.60;;;17.30;81.30;;;;;;5066731;28;20574;-67
2022/06/08 06:32:49;;;;;;;3.00;1.52;;;17.40;81.20;;;;;;5067768;28;20048;-68
2022/06/08 06:35:22;;;;;;;6.20;2.17;;;17.50;81.10;;;;;;5068764;28;20052;-69
2022/06/08 06:37:50;;;;;;;3.83;1.70;;;17.60;80.50;;;;;;5067540;28;20140;-69
2022/06/08 06:40:17;;;;;;;4.10;1.60;;;17.70;80.60;;;;;;5064023;28;20049;-69
2022/06/08 06:42:47;;;;;;;2.22;1.30;;;17.80;80.70;;;;;;5063906;28;20499;-69
2022/06/08 06:45:49;;;;;;;2.45;1.55;;;17.90;80.20;;;;;;5079841;28;20099;-68
2022/06/08 06:48:48;;;;;;;2.80;1.40;;;18.10;80.20;;;;;;5031589;28;20094;-69
2022/06/08 06:51:15;;;;;;;3.22;1.50;;;18.20;80.20;;;;;;5088555;28;20487;-68
2022/06/08 06:53:43;;;;;;;3.45;1.52;;;18.30;79.90;;;;;;5068563;28;20070;-66
2022/06/08 06:56:10;;;;;;;3.08;1.10;;;18.40;79.60;;;;;;5072318;28;20059;-69
2022/06/08 06:58:58;;;;;;;5.15;1.60;;;18.40;79.40;;;;;;5087295;28;20074;-68
2022/06/08 07:01:28;;;;;;;3.85;1.02;;;18.60;79.30;;;;;;5066827;28;20066;-68
2022/06/08 07:03:57;;;;;;;2.80;1.10;;;18.70;79.00;;;;;;5056597;28;20602;-68
2022/06/08 07:06:25;;;;;;;3.80;1.20;;;18.80;78.50;;;;;;5069599;28;20148;-68
2022/06/08 07:08:52;;;;;;;1.92;1.00;;;19.00;78.60;;;;;;5071958;28;20683;-67
2022/06/08 07:11:40;;;;;;;2.75;1.33;;;19.10;78.70;;;;;;5070778;28;20065;-68
2022/06/08 07:14:20;;;;;;;2.58;1.10;;;19.20;78.50;;;;;;5071771;28;20119;-68
2022/06/08 07:17:09;;;;;;;2.10;0.90;;;19.30;77.50;;;;;;5068776;28;20559;-67
2022/06/08 07:19:39;;;;;;;1.88;1.08;;;19.40;76.50;;;;;;5069603;28;20170;-69
2022/06/08 07:22:08;;;;;;;2.33;0.95;;;19.60;75.80;;;;;;5069372;28;20047;-68
2022/06/08 07:24:35;;;;;;;2.35;1.02;;;19.80;75.70;;;;;;5082759;28;20036;-67
2022/06/08 07:27:03;;;;;;;2.63;1.38;;;19.90;75.40;;;;;;5084488;28;20044;-68
2022/06/08 07:29:33;;;;;;;5.00;1.70;;;20.10;74.10;;;;;;5087925;28;20506;-68
2022/06/08 07:32:00;;;;;;;7.90;2.38;;;20.30;74.40;;;;;;5089068;28;20050;-69
2022/06/08 07:34:28;;;;;;;7.80;3.47;;;20.30;74.10;;;;;;5086587;28;20411;-69
2022/06/08 07:36:55;;;;;;;5.95;1.60;;;20.40;74.10;;;;;;5093044;28;20051;-69
2022/06/08 07:39:26;;;;;;;4.47;2.13;;;20.50;72.20;;;;;;5085892;28;20042;-68
2022/06/08 07:41:55;;;;;;;4.85;2.15;;;20.80;71.50;;;;;;5089412;28;20067;-68
2022/06/08 07:44:22;;;;;;;13.97;6.93;;;20.90;70.20;;;;;;5085041;28;20067;-69
2022/06/08 07:46:51;;;;;;;10.13;4.50;;;21.10;70.70;;;;;;5092104;28;20470;-68
2022/06/08 07:49:39;;;;;;;10.40;4.97;;;21.10;71.10;;;;;;5086537;28;20044;-69
2022/06/08 07:52:09;;;;;;;7.60;3.40;;;21.20;70.80;;;;;;5087495;28;20039;-67
2022/06/08 07:54:36;;;;;;;;;;;21.30;69.60;;;;;;5067758;28;20075;-67
2022/06/08 07:57:04;;;;;;;4.18;1.95;;;21.60;69.10;;;;;;5099594;28;20302;-68
2022/06/08 07:59:33;;;;;;;8.00;2.83;;;21.70;68.00;;;;;;5096864;28;20435;-70
2022/06/08 08:02:02;;;;;;;;;;;21.80;68.40;;;;;;5084505;28;20044;-69
2022/06/08 08:04:29;;;;;;;3.15;1.63;;;21.80;67.10;;;;;;5077721;28;19924;-69
2022/06/08 08:06:56;;;;;;;4.55;1.40;;;22.10;66.10;;;;;;5085336;28;20052;-68
2022/06/08 08:09:23;;;;;;;4.60;1.85;;;22.20;65.60;;;;;;5084915;28;20044;-68
2022/06/08 08:11:54;;;;;;;8.02;3.90;;;22.10;67.10;;;;;;5082421;28;20059;-69
2022/06/08 08:14:24;;;;;;;4.72;2.50;;;22.10;66.60;;;;;;5067730;28;20511;-69
2022/06/08 08:16:51;;;;;;;6.60;3.50;;;22.10;66.30;;;;;;5084415;28;20143;-68
2022/06/08 08:19:22;;;;;;;9.73;3.25;;;22.10;67.40;;;;;;5069707;28;20566;-69
2022/06/08 08:21:50;;;;;;;5.15;2.15;;;22.10;67.10;;;;;;5082926;28;20487;-69
2022/06/08 08:24:17;;;;;;;5.70;1.90;;;22.20;65.50;;;;;;5079856;28;20142;-68
2022/06/08 08:26:46;;;;;;;7.63;3.08;;;22.40;64.50;;;;;;5084147;28;20544;-69
2022/06/08 08:29:14;;;;;;;3.42;1.48;;;22.50;64.90;;;;;;5088445;28;20399;-69
2022/06/08 08:31:41;;;;;;;4.10;1.20;;;22.60;63.70;;;;;;5087159;28;20048;-68
2022/06/08 08:34:09;;;;;;;4.05;1.42;;;22.70;62.90;;;;;;5089367;28;20048;-68
2022/06/08 08:36:37;;;;;;;4.03;1.85;;;22.80;62.50;;;;;;5085864;28;20102;-69
2022/06/08 08:39:05;;;;;;;3.38;1.13;;;22.90;62.80;;;;;;5085119;28;20032;-69
2022/06/08 08:44:32;;;;;;;2.35;1.50;;;22.80;62.30;;;;;;5084965;28;20052;-68
2022/06/08 08:47:09;;;;;;;4.03;0.90;;;22.60;62.10;;;;;;5085084;28;20126;-68
2022/06/08 08:49:38;;;;;;;1.27;0.60;;;22.60;62.80;;;;;;5080719;28;20050;-69
2022/06/08 08:52:31;;;;;;;3.03;0.75;;;22.40;62.70;;;;;;5086535;28;20043;-68
2022/06/08 08:55:04;;;;;;;1.30;0.68;;;22.30;63.10;;;;;;5084147;28;20443;-69
2022/06/08 08:57:39;;;;;;;2.75;0.85;;;22.30;63.10;;;;;;5087254;28;20035;-68
2022/06/08 09:00:17;;;;;;;4.53;1.05;;;22.30;62.90;;;;;;5082663;28;20051;-68
2022/06/08 09:05:32;;;;;;;5.10;1.63;;;22.10;63.80;;;;;;5089569;28;20040;-68
2022/06/08 09:08:00;;;;;;;4.15;1.20;;;22.10;64.10;;;;;;5088405;28;20097;-68
2022/06/08 09:10:28;;;;;;;5.72;2.08;;;22.00;64.20;;;;;;5092271;28;20748;-67
2022/06/08 09:12:56;;;;;;;4.32;1.90;;;22.00;64.80;;;;;;5091723;28;20040;-69
2022/06/08 09:15:44;;;;;;;4.90;1.80;;;22.00;65.00;;;;;;5090127;28;20119;-69
2022/06/08 09:18:20;;;;;;;3.05;1.52;;;21.90;64.90;;;;;;5071525;28;21454;-69
2022/06/08 09:20:47;;;;;;;3.40;1.10;;;21.90;64.90;;;;;;5071045;28;20809;-69
2022/06/08 09:23:29;;;;;;;3.20;1.20;;;22.00;64.70;;;;;;5087839;28;20031;-69
2022/06/08 09:26:07;;;;;;;3.63;1.55;;;21.90;64.70;;;;;;5088197;28;20518;-68
2022/06/08 09:28:35;;;;;;;3.17;0.85;;;21.90;65.20;;;;;;5089394;28;20064;-68
2022/06/08 09:31:02;;;;;;;2.20;0.77;;;22.00;64.50;;;;;;5091829;28;20044;-68
2022/06/08 09:33:35;;;;;;;2.55;0.95;;;22.00;64.80;;;;;;5089853;28;20050;-69
2022/06/08 09:36:06;;;;;;;2.80;0.80;;;21.90;65.10;;;;;;5072509;28;20067;-68
2022/06/08 09:38:40;;;;;;;2.03;0.63;;;21.90;65.20;;;;;;5091452;28;20491;-67
2022/06/08 09:41:16;;;;;;;1.75;0.80;;;21.80;65.70;;;;;;5084412;28;20427;-68
2022/06/08 09:43:57;;;;;;;3.53;0.82;;;21.80;65.80;;;;;;5090881;28;20093;-69
2022/06/08 09:52:23;;;;;;;3.60;0.82;;;21.70;66.00;;;;;;5074781;28;20101;-69
2022/06/08 09:55:04;;;;;;;3.70;0.90;;;21.70;66.40;;;;;;5069957;28;20044;-68
2022/06/08 09:57:42;;;;;;;2.63;1.13;;;21.80;66.20;;;;;;5071951;28;20523;-68
2022/06/08 10:00:29;;;;;;;2.40;0.85;;;21.80;66.00;;;;;;5065682;28;20098;-69
2022/06/08 10:03:28;;;;;;;2.30;1.10;;;21.80;65.60;;;;;;5066744;28;20040;-69
2022/06/08 10:06:03;;;;;;;1.77;0.80;;;21.80;65.10;;;;;;5061607;28;20657;-67
2022/06/08 10:08:48;;;;;;;3.28;1.20;;;21.90;65.40;;;;;;5068051;28;20424;-69
2022/06/08 10:11:42;;;;;;;2.55;0.98;;;22.00;65.60;;;;;;5066195;28;20578;-67
2022/06/08 10:14:19;;;;;;;2.95;0.93;;;22.10;65.80;;;;;;5067122;28;20701;-67
2022/06/08 10:16:51;;;;;;;4.13;1.58;;;22.20;65.10;;;;;;5071313;28;20130;-68
2022/06/08 10:19:25;;;;;;;3.20;1.63;;;22.30;64.20;;;;;;5070051;28;20085;-68
2022/06/08 10:21:53;;;;;;;5.20;1.55;;;22.40;63.90;;;;;;5067043;28;20048;-68
2022/06/08 10:24:25;;;;;;;2.42;1.10;;;22.50;63.30;;;;;;5066998;28;20050;-67
2022/06/08 10:26:58;;;;;;;5.82;1.05;;;22.60;63.10;;;;;;5068691;28;20504;-68
2022/06/08 10:29:33;;;;;;;3.13;0.90;;;22.60;62.60;;;;;;5069730;28;20048;-67
2022/06/08 10:32:06;;;;;;;1.98;0.80;;;22.70;62.30;;;;;;5033282;28;20044;-68
2022/06/08 10:34:35;;;;;;;4.40;1.00;;;22.80;61.60;;;;;;5069570;28;20128;-69
2022/06/08 10:37:07;;;;;;;3.65;1.25;;;22.80;61.30;;;;;;5049361;28;20122;-68
2022/06/08 10:39:35;;;;;;;3.92;1.42;;;22.80;61.10;;;;;;5071271;28;20036;-68
2022/06/08 10:42:42;;;;;;;3.38;1.70;;;22.90;61.30;;;;;;5065394;28;20075;-69
2022/06/08 10:45:37;;;;;;;3.72;1.52;;;22.90;60.90;;;;;;5061123;28;20056;-70
2022/06/08 10:48:26;;;;;;;3.00;1.38;;;22.90;61.20;;;;;;5055504;28;20396;-69
2022/06/08 10:51:21;;;;;;;3.97;1.80;;;23.00;60.50;;;;;;5056322;28;20152;-69
2022/06/08 10:56:55;;;;;;;4.68;1.90;;;23.10;59.70;;;;;;4991951;28;20046;-68
2022/06/08 10:59:26;;;;;;;6.20;2.35;;;23.10;59.20;;;;;;4995631;28;20053;-68
2022/06/08 11:02:15;;;;;;;5.75;2.25;;;23.10;59.20;;;;;;5020612;28;20408;-68
2022/06/08 11:04:55;;;;;;;3.90;1.98;;;23.20;58.90;;;;;;5037748;28;20393;-68
2022/06/08 11:07:23;;;;;;;3.53;1.35;;;23.20;59.20;;;;;;5056671;28;20391;-69
2022/06/08 11:10:12;;;;;;;3.42;1.48;;;23.30;59.00;;;;;;5056460;28;20045;-69
2022/06/08 11:12:52;;;;;;;7.20;2.13;;;23.40;58.50;;;;;;5057409;28;20091;-69
2022/06/08 11:15:46;;;;;;;3.13;1.08;;;23.50;58.40;;;;;;5051824;28;20044;-69
2022/06/08 11:18:24;;;;;;;3.42;1.40;;;23.60;57.70;;;;;;5056864;28;20528;-68
2022/06/08 11:21:06;;;;;;;2.10;1.00;;;23.60;57.10;;;;;;5056510;28;20127;-69
2022/06/08 11:23:39;;;;;;;3.03;1.60;;;23.60;56.80;;;;;;5051774;28;20055;-69
2022/06/08 11:26:40;;;;;;;4.63;1.40;;;23.60;56.70;;;;;;5052837;28;20094;-69
2022/06/08 11:29:40;;;;;;;3.40;1.15;;;23.60;56.40;;;;;;5051994;28;20131;-69
2022/06/08 11:32:42;;;;;;;4.13;1.42;;;23.60;56.20;;;;;;5053309;28;20479;-69
2022/06/08 11:35:47;;;;;;;3.22;0.85;;;23.60;56.10;;;;;;5025010;28;20060;-70
2022/06/08 11:38:31;;;;;;;2.42;1.35;;;23.60;55.90;;;;;;5052261;28;20709;-67
2022/06/08 11:41:16;;;;;;;1.48;0.70;;;23.50;55.60;;;;;;5052729;28;20488;-68
2022/06/08 11:43:43;;;;;;;1.55;0.68;;;23.40;55.30;;;;;;5052891;28;20051;-69
2022/06/08 11:46:23;;;;;;;1.75;0.57;;;23.40;55.30;;;;;;5079818;28;20059;-69
2022/06/08 11:48:52;;;;;;;;;;;23.30;55.00;;;;;;5090688;28;20036;-69
2022/06/08 11:51:34;;;;;;;1.20;0.65;;;23.30;55.10;;;;;;5096294;28;20327;-69
2022/06/08 11:54:16;;;;;;;0.98;0.70;;;23.30;55.10;;;;;;5088520;28;20170;-69
2022/06/08 11:56:54;;;;;;;2.40;0.90;;;23.20;54.90;;;;;;5087053;28;20271;-69
2022/06/08 11:59:21;;;;;;;2.78;0.57;;;23.20;54.80;;;;;;5081519;28;20040;-68
2022/06/08 12:01:54;;;;;;;1.55;0.60;;;23.20;55.00;;;;;;5082585;28;20046;-69
2022/06/08 12:04:25;;;;;;;3.92;0.70;;;23.20;54.60;;;;;;5085290;28;20170;-68
2022/06/08 12:06:53;;;;;;;6.10;0.50;;;23.20;54.50;;;;;;5091853;28;20032;-69
2022/06/08 12:09:23;;;;;;;2.97;0.60;;;23.30;54.30;;;;;;5085717;28;20487;-68
2022/06/08 12:11:53;;;;;;;1.27;0.43;;;23.40;54.00;;;;;;5099699;28;20043;-67
2022/06/08 12:14:25;;;;;;;;;;;23.40;53.70;;;;;;5099425;28;20606;-69
2022/06/08 12:16:56;;;;;;;1.67;0.55;;;23.40;53.50;;;;;;5098229;28;19931;-68
2022/06/08 12:19:27;;;;;;;1.67;0.50;;;23.50;53.50;;;;;;5098101;28;20079;-69
2022/06/08 12:22:10;;;;;;;1.10;0.35;;;23.50;53.20;;;;;;5081388;28;21014;-68
2022/06/08 12:24:38;;;;;;;3.75;0.70;;;23.50;53.20;;;;;;5099524;28;20044;-69
2022/06/08 12:27:20;;;;;;;1.67;0.68;;;23.50;53.30;;;;;;5096584;28;20048;-69
2022/06/08 12:29:55;;;;;;;3.10;0.50;;;23.50;53.30;;;;;;5078116;28;20063;-69
2022/06/08 12:32:50;;;;;;;1.30;0.60;;;23.50;53.20;;;;;;5099682;28;20043;-69
2022/06/08 12:35:32;;;;;;;0.95;0.43;;;23.60;53.30;;;;;;5098191;28;20042;-68
2022/06/08 12:38:17;;;;;;;1.70;0.32;;;23.60;53.30;;;;;;5100487;28;20483;-68
2022/06/08 12:41:02;;;;;;;1.15;0.52;;;23.70;53.00;;;;;;5098584;28;20487;-69
2022/06/08 12:43:42;;;;;;;0.98;0.40;;;23.80;52.90;;;;;;5099723;28;20497;-69
2022/06/08 12:46:25;;;;;;;4.00;1.00;;;23.80;52.90;;;;;;5104626;28;20511;-67
2022/06/08 12:49:15;;;;;;;3.95;0.80;;;23.90;52.60;;;;;;5096210;28;20488;-68
2022/06/08 12:51:48;;;;;;;2.00;0.60;;;23.90;52.50;;;;;;5092018;28;20076;-68
2022/06/08 12:54:22;;;;;;;0.82;0.40;;;23.90;52.40;;;;;;5090748;28;20039;-69
2022/06/08 12:56:52;;;;;;;2.63;0.50;;;23.90;52.30;;;;;;5104173;28;20519;-68
2022/06/08 12:59:20;;;;;;;1.58;0.60;;;24.00;52.30;;;;;;5103527;28;20040;-68
2022/06/08 13:01:48;;;;;;;2.28;0.50;;;24.00;52.30;;;;;;5099320;28;20048;-68
2022/06/08 13:04:18;;;;;;;2.60;1.08;;;24.00;52.10;;;;;;5097771;28;20074;-68
2022/06/08 13:06:47;;;;;;;2.35;0.73;;;24.00;52.00;;;;;;5093667;28;20044;-68
2022/06/08 13:09:17;;;;;;;1.73;0.40;;;24.00;51.90;;;;;;5094018;28;20390;-68
2022/06/08 13:11:46;;;;;;;2.92;0.68;;;24.00;51.70;;;;;;5098336;28;20044;-69
2022/06/08 13:14:18;;;;;;;;;;;23.90;51.60;;;;;;5099772;28;20043;-68
2022/06/08 13:16:45;;;;;;;2.58;0.65;;;23.90;51.30;;;;;;5094099;28;19928;-70
2022/06/08 13:19:15;;;;;;;4.07;0.80;;;23.90;51.20;;;;;;5083483;28;20035;-69
2022/06/08 13:21:43;;;;;;;1.75;0.50;;;23.80;51.10;;;;;;5095767;28;20047;-68
2022/06/08 13:24:11;;;;;;;2.10;0.50;;;23.80;50.80;;;;;;5097310;28;20056;-68
2022/06/08 13:26:40;;;;;;;3.28;0.60;;;23.80;50.60;;;;;;5095179;28;20292;-68
2022/06/08 13:29:08;;;;;;;2.10;0.82;;;23.80;50.00;;;;;;5090218;28;20055;-70
2022/06/08 13:31:35;;;;;;;3.58;0.60;;;23.80;49.70;;;;;;5092011;28;20040;-69
2022/06/08 13:34:03;;;;;;;1.38;0.60;;;23.70;49.90;;;;;;5094325;28;20101;-69
2022/06/08 13:36:34;;;;;;;1.90;0.75;;;23.70;49.70;;;;;;5093982;28;20407;-70
2022/06/08 13:39:10;;;;;;;1.75;0.43;;;23.60;49.80;;;;;;5097284;28;20491;-68
2022/06/08 13:41:42;;;;;;;3.92;0.65;;;23.60;49.70;;;;;;5076632;28;20821;-69